Terminal Aerodrome Forecast
Issued by NWS

Home | Current Version | Previous Version | Text Only | Print | Product List | Glossary On
Versions: 1 2 3 4 5 6 7 8 9 10 11 12 13 14 15 16 17 18 19 20 21 22 23 24 25 26 27 28 29 30 31 32
000
FTUS45 KBOU 222103 AAB
TAFBJC
TAF AMD
KBJC 222103Z 2221/2318 09010KT P6SM SCT100 BKN180
     FM230100 24012KT P6SM SCT100 BKN150
     FM230300 01012KT P6SM SCT100 BKN150
     FM230600 31010KT P6SM SCT100 BKN150
     FM231000 35010KT P6SM SCT070 BKN100
     FM231500 03010KT P6SM VCSH SCT030 BKN060
     FM231700 36010KT 5SM -SHSN BKN050=

USA.gov is the U.S. government's official web portal to all federal, state and local government web resources and services.